createdAt,value
2022-12-14T00:00:59.708Z,-5.43
2022-12-14T00:03:40.693Z,-5.45
2022-12-14T00:06:26.423Z,-5.39
2022-12-14T00:09:22.182Z,-5.27
2022-12-14T00:11:59.571Z,-5.22
2022-12-14T00:14:32.301Z,-5.26
2022-12-14T00:17:06.722Z,-5.24
2022-12-14T00:19:58.478Z,-5.31
2022-12-14T00:22:46.579Z,-5.14
2022-12-14T00:25:25.550Z,-5.05
2022-12-14T00:28:07.400Z,-5.13
2022-12-14T00:31:04.642Z,-4.96
2022-12-14T00:33:44.134Z,-4.95
2022-12-14T00:36:27.308Z,-4.92
2022-12-14T00:39:19.242Z,-4.86
2022-12-14T00:42:09.444Z,-4.73
2022-12-14T00:44:56.370Z,-4.66
2022-12-14T00:47:49.420Z,-4.59
2022-12-14T00:50:51.616Z,-4.61
2022-12-14T00:53:38.812Z,-4.67
2022-12-14T00:56:27.258Z,-4.54
2022-12-14T00:59:05.359Z,-4.53
2022-12-14T01:01:49.967Z,-4.36
2022-12-14T01:04:37.602Z,-4.43
2022-12-14T01:07:23.691Z,-4.31
2022-12-14T01:10:24.054Z,-4.25
2022-12-14T01:13:09.621Z,-4.26
2022-12-14T01:16:07.432Z,-4.06
2022-12-14T01:18:46.577Z,-4.07
2022-12-14T01:21:43.202Z,-3.91
2022-12-14T01:24:21.609Z,-3.96
2022-12-14T01:27:00.086Z,-3.94
2022-12-14T01:29:43.466Z,-3.83
2022-12-14T01:32:37.589Z,-3.69
2022-12-14T01:35:13.585Z,-3.69
2022-12-14T01:37:58.554Z,-3.62
2022-12-14T01:40:39.096Z,-3.64
2022-12-14T01:43:29.586Z,-3.57
2022-12-14T01:46:19.345Z,-3.57
2022-12-14T01:49:16.613Z,-3.51
2022-12-14T01:52:12.169Z,-3.43
2022-12-14T01:54:56.970Z,-3.51
2022-12-14T01:57:56.693Z,-3.37
2022-12-14T02:00:55.581Z,-3.45
2022-12-14T02:03:40.638Z,-3.44
2022-12-14T02:06:55.190Z,-3.28
2022-12-14T02:09:48.258Z,-3.35
2022-12-14T02:13:09.350Z,-3.11
2022-12-14T02:15:48.747Z,-3.11
2022-12-14T02:18:41.810Z,-3.10
2022-12-14T02:21:39.477Z,-3.12
2022-12-14T02:24:37.588Z,-3.23
2022-12-14T02:27:38.563Z,-3.20
2022-12-14T02:30:15.326Z,-3.07
2022-12-14T02:33:19.375Z,-3.14
2022-12-14T02:36:25.755Z,-3.15
2022-12-14T02:39:32.066Z,-3.04
2022-12-14T02:42:20.512Z,-3.43
2022-12-14T02:45:31.212Z,-3.30
2022-12-14T02:48:26.500Z,-3.28
2022-12-14T02:51:21.385Z,-3.20
2022-12-14T02:54:26.738Z,-3.17
2022-12-14T02:57:25.693Z,-3.21
2022-12-14T03:00:12.607Z,-3.01
2022-12-14T03:03:07.872Z,-2.95
2022-12-14T03:05:53.922Z,-2.77
2022-12-14T03:08:39.733Z,-2.80
2022-12-14T03:11:11.125Z,-2.90
2022-12-14T03:14:12.896Z,-3.04
2022-12-14T03:17:00.071Z,-3.04
2022-12-14T03:19:48.908Z,-2.90
2022-12-14T03:22:47.197Z,-2.79
2022-12-14T03:25:51.984Z,-2.89
2022-12-14T03:28:31.792Z,-2.90
2022-12-14T03:31:33.154Z,-2.97
2022-12-14T03:34:36.421Z,-2.89
2022-12-14T03:38:07.640Z,-2.84
2022-12-14T03:41:01.866Z,-2.90
2022-12-14T03:44:02.120Z,-2.89
2022-12-14T03:46:56.910Z,-2.84
2022-12-14T03:50:12.697Z,-2.74
2022-12-14T03:53:17.537Z,-2.76
2022-12-14T03:56:45.250Z,-2.71
2022-12-14T04:00:02.828Z,-2.84
2022-12-14T04:03:18.886Z,-2.85
2022-12-14T04:06:29.669Z,-2.78
2022-12-14T04:09:20.887Z,-2.85
2022-12-14T04:12:51.694Z,-2.85
2022-12-14T04:15:50.542Z,-2.83
2022-12-14T04:19:00.329Z,-2.75
2022-12-14T04:22:01.899Z,-2.57
2022-12-14T04:25:06.385Z,-2.72
2022-12-14T04:27:45.818Z,-2.78
2022-12-14T04:30:24.554Z,-2.62
2022-12-14T04:33:26.337Z,-2.66
2022-12-14T04:36:07.459Z,-2.65
2022-12-14T04:38:47.780Z,-2.56
2022-12-14T04:41:37.546Z,-2.67
2022-12-14T04:44:47.102Z,-2.63
2022-12-14T04:47:25.033Z,-2.68
2022-12-14T04:50:39.640Z,-2.70
2022-12-14T04:53:47.017Z,-2.61
2022-12-14T04:56:46.570Z,-2.63
2022-12-14T04:59:32.682Z,-2.81
2022-12-14T05:02:19.628Z,-2.82
2022-12-14T05:05:30.562Z,-2.81
2022-12-14T05:08:32.947Z,-2.81
2022-12-14T05:11:53.757Z,-2.91
2022-12-14T05:14:51.149Z,-2.96
2022-12-14T05:17:35.940Z,-2.93
2022-12-14T05:20:39.878Z,-2.96
2022-12-14T05:23:26.887Z,-2.97
2022-12-14T05:26:09.764Z,-3.03
2022-12-14T05:28:52.341Z,-3.03
2022-12-14T05:31:34.454Z,-2.95
2022-12-14T05:34:14.992Z,-2.95
2022-12-14T05:37:01.776Z,-2.99
2022-12-14T05:40:05.318Z,-3.14
2022-12-14T05:42:58.531Z,-3.15
2022-12-14T05:45:42.476Z,-3.06
2022-12-14T05:48:29.350Z,-3.06
2022-12-14T05:51:35.302Z,-2.94
2022-12-14T05:54:41.052Z,-2.81
2022-12-14T05:57:19.218Z,-2.88
2022-12-14T06:00:10.331Z,-2.81
2022-12-14T06:02:59.543Z,-2.73
2022-12-14T06:06:08.599Z,-2.65
2022-12-14T06:08:56.744Z,-2.75
2022-12-14T06:11:40.583Z,-2.71
2022-12-14T06:14:36.855Z,-2.73
2022-12-14T06:17:28.881Z,-2.70
2022-12-14T06:20:18.133Z,-2.86
2022-12-14T06:23:12.520Z,-2.76
2022-12-14T06:26:01.432Z,-2.84
2022-12-14T06:28:47.954Z,-2.83
2022-12-14T06:31:41.370Z,-2.85
2022-12-14T06:34:23.581Z,-2.91
2022-12-14T06:37:14.942Z,-2.82
2022-12-14T06:40:07.815Z,-2.83
2022-12-14T06:42:59.519Z,-2.77
2022-12-14T06:45:51.993Z,-2.76
2022-12-14T06:48:48.265Z,-2.80
2022-12-14T06:51:50.197Z,-2.86
2022-12-14T06:54:34.667Z,-2.81
2022-12-14T06:57:12.548Z,-2.74
2022-12-14T06:59:57.514Z,-2.63
2022-12-14T07:03:00.964Z,-2.55
2022-12-14T07:05:48.680Z,-2.54
2022-12-14T07:08:30.361Z,-2.49
2022-12-14T07:11:16.923Z,-2.39
2022-12-14T07:14:00.486Z,-2.34
2022-12-14T07:16:43.884Z,-2.47
2022-12-14T07:19:28.584Z,-2.50
2022-12-14T07:22:28.735Z,-2.54
2022-12-14T07:25:21.332Z,-2.46
2022-12-14T07:28:03.654Z,-2.57
2022-12-14T07:30:47.636Z,-2.47
2022-12-14T07:33:36.815Z,-2.51
2022-12-14T07:36:17.020Z,-2.55
2022-12-14T07:39:02.428Z,-2.46
2022-12-14T07:41:44.281Z,-2.54
2022-12-14T07:44:30.511Z,-2.54
2022-12-14T07:47:19.366Z,-2.49
2022-12-14T07:50:09.483Z,-2.48
2022-12-14T07:52:53.894Z,-2.45
2022-12-14T07:55:35.759Z,-2.44
2022-12-14T07:58:19.425Z,-2.42
2022-12-14T08:01:32.579Z,-2.25
2022-12-14T08:04:23.703Z,-2.13
2022-12-14T08:07:23.514Z,-2.17
2022-12-14T08:10:26.959Z,-2.07
2022-12-14T08:13:05.067Z,-2.19
2022-12-14T08:15:48.586Z,-2.28
2022-12-14T08:18:37.600Z,-2.25
2022-12-14T08:21:23.938Z,-2.04
2022-12-14T08:24:19.086Z,-1.96
2022-12-14T08:26:58.064Z,-2.03
2022-12-14T08:29:37.982Z,-1.82
2022-12-14T08:32:33.915Z,-1.86
2022-12-14T08:35:31.456Z,-1.91
2022-12-14T08:38:15.662Z,-1.87
2022-12-14T08:41:04.758Z,-1.80
2022-12-14T08:43:57.375Z,-1.73
2022-12-14T08:46:47.782Z,-1.80
2022-12-14T08:49:41.074Z,-1.77
2022-12-14T08:52:33.545Z,-1.83
2022-12-14T08:55:08.903Z,-1.87
2022-12-14T08:57:57.552Z,-1.89
2022-12-14T09:00:43.876Z,-1.91
2022-12-14T09:03:31.780Z,-1.87
2022-12-14T09:06:32.652Z,-1.87
2022-12-14T09:09:32.653Z,-1.89
2022-12-14T09:12:21.594Z,-1.91
2022-12-14T09:15:22.745Z,-1.84
2022-12-14T09:18:00.737Z,-1.80
2022-12-14T09:20:47.247Z,-1.88
2022-12-14T09:23:57.295Z,-1.73
2022-12-14T09:26:44.622Z,-1.89
2022-12-14T09:29:36.765Z,-1.73
2022-12-14T09:32:33.508Z,-1.64
2022-12-14T09:35:20.063Z,-1.89
2022-12-14T09:38:04.214Z,-1.71
2022-12-14T09:40:47.996Z,-1.70
2022-12-14T09:43:49.219Z,-1.63
2022-12-14T09:46:36.611Z,-1.78
2022-12-14T09:49:39.556Z,-1.60
2022-12-14T09:52:54.043Z,-1.77
2022-12-14T09:55:45.656Z,-1.64
2022-12-14T09:58:30.991Z,-1.75
2022-12-14T10:05:18.780Z,-1.67
2022-12-14T10:08:20.086Z,-1.64
2022-12-14T10:11:30.505Z,-1.56
2022-12-14T10:14:50.943Z,-1.55
2022-12-14T10:18:49.380Z,-1.45
2022-12-14T10:21:52.421Z,-1.50
2022-12-14T10:24:53.350Z,-1.41
2022-12-14T10:28:01.229Z,-1.32
2022-12-14T10:31:18.955Z,-1.37
2022-12-14T10:34:23.542Z,-1.29
2022-12-14T10:37:26.885Z,-1.32
2022-12-14T10:40:34.483Z,-1.23
2022-12-14T10:44:00.028Z,-1.42
2022-12-14T10:47:02.567Z,-1.45
2022-12-14T10:50:15.753Z,-1.44
2022-12-14T10:52:58.212Z,-1.34
2022-12-14T10:55:48.340Z,-1.33
2022-12-14T10:58:29.724Z,-1.24
2022-12-14T11:01:17.955Z,-1.14
2022-12-14T11:03:58.246Z,-1.10
2022-12-14T11:06:46.885Z,-1.14
2022-12-14T11:09:35.201Z,-1.12
2022-12-14T11:12:44.519Z,-1.09
2022-12-14T11:15:35.510Z,-0.82
2022-12-14T11:18:25.491Z,-0.93
2022-12-14T11:21:21.053Z,-1.19
2022-12-14T11:24:07.344Z,-1.00
2022-12-14T11:26:57.808Z,-0.72
2022-12-14T11:29:45.027Z,-0.89
2022-12-14T11:32:51.635Z,-1.16
2022-12-14T11:35:43.406Z,-0.94
2022-12-14T11:38:35.179Z,-0.81
2022-12-14T11:41:30.827Z,-0.75
2022-12-14T11:44:41.687Z,-0.88
2022-12-14T11:47:38.916Z,-0.84
2022-12-14T11:50:41.609Z,-0.84
2022-12-14T11:53:26.986Z,-0.58
2022-12-14T11:56:22.686Z,-0.70
2022-12-14T11:59:14.009Z,-0.84
2022-12-14T12:01:58.734Z,-0.80
2022-12-14T12:04:45.438Z,-0.83
2022-12-14T12:07:40.190Z,-0.96
2022-12-14T12:11:02.785Z,-1.10
2022-12-14T12:13:48.248Z,-1.06
2022-12-14T12:16:33.701Z,-0.92
2022-12-14T12:19:23.517Z,-0.87
2022-12-14T12:22:11.885Z,-0.85
2022-12-14T12:25:25.736Z,-0.82
2022-12-14T12:28:30.009Z,-0.72
2022-12-14T12:31:17.428Z,-0.75
2022-12-14T12:34:10.627Z,-0.75
2022-12-14T12:37:24.862Z,-0.77
2022-12-14T12:40:07.895Z,-0.74
2022-12-14T12:42:48.890Z,-0.66
2022-12-14T12:45:41.468Z,-0.83
2022-12-14T12:48:43.415Z,-0.79
2022-12-14T12:52:08.105Z,-0.82
2022-12-14T12:55:10.051Z,-0.85
2022-12-14T12:57:56.787Z,-0.85
2022-12-14T13:00:35.770Z,-0.99
2022-12-14T13:03:26.491Z,-0.85
2022-12-14T13:06:33.859Z,-0.86
2022-12-14T13:09:50.548Z,-0.87
2022-12-14T13:12:56.063Z,-0.93
2022-12-14T13:16:01.013Z,-0.76
2022-12-14T13:19:25.383Z,-0.68
2022-12-14T13:22:17.683Z,-0.66
2022-12-14T13:25:04.683Z,-0.72
2022-12-14T13:28:04.469Z,-0.81
2022-12-14T13:31:11.379Z,-0.64
2022-12-14T13:34:12.375Z,-0.65
2022-12-14T13:36:57.021Z,-0.66
2022-12-14T13:39:56.693Z,-0.75
2022-12-14T13:42:55.594Z,-0.74
2022-12-14T13:45:50.352Z,-0.83
2022-12-14T13:48:56.863Z,-0.85
2022-12-14T13:51:43.427Z,-1.01
2022-12-14T13:54:45.942Z,-0.96
2022-12-14T13:57:37.588Z,-1.10
2022-12-14T14:01:02.146Z,-0.98
2022-12-14T14:04:22.493Z,-0.92
2022-12-14T14:07:54.089Z,-0.99
2022-12-14T14:10:45.200Z,-1.17
2022-12-14T14:14:18.465Z,-0.95
2022-12-14T14:17:02.622Z,-1.00
2022-12-14T14:20:13.417Z,-0.99
2022-12-14T14:23:24.027Z,-1.06
2022-12-14T14:26:49.750Z,-1.06
2022-12-14T14:29:40.489Z,-1.02
2022-12-14T14:32:44.961Z,-0.96
2022-12-14T14:35:49.728Z,-1.01
2022-12-14T14:38:36.955Z,-0.91
2022-12-14T14:41:37.501Z,-1.12
2022-12-14T14:44:58.862Z,-1.08
2022-12-14T14:47:47.118Z,-1.19
2022-12-14T14:50:53.886Z,-1.08
2022-12-14T15:00:20.491Z,-1.25
2022-12-14T15:03:09.261Z,-1.04
2022-12-14T15:06:08.743Z,-1.10
2022-12-14T15:08:58.006Z,-0.99
2022-12-14T15:11:55.161Z,-1.20
2022-12-14T15:14:58.659Z,-1.15
2022-12-14T15:17:47.789Z,-1.11
2022-12-14T15:21:16.682Z,-1.08
2022-12-14T15:23:59.303Z,-1.14
2022-12-14T15:26:46.786Z,-1.31
2022-12-14T15:29:49.553Z,-1.30
2022-12-14T15:32:45.779Z,-1.45
2022-12-14T15:35:49.560Z,-1.43
2022-12-14T15:38:38.549Z,-1.36
2022-12-14T15:41:34.960Z,-1.23
2022-12-14T15:44:45.655Z,-1.35
2022-12-14T15:48:03.928Z,-1.44
2022-12-14T15:50:44.335Z,-1.47
2022-12-14T15:53:49.882Z,-1.54
2022-12-14T15:57:11.187Z,-1.50
2022-12-14T16:00:07.539Z,-1.66
2022-12-14T16:02:57.300Z,-1.51
2022-12-14T16:05:39.278Z,-1.53
2022-12-14T16:08:36.521Z,-1.49
2022-12-14T16:11:27.200Z,-1.56
2022-12-14T16:14:46.655Z,-1.45
2022-12-14T16:17:48.310Z,-1.37
2022-12-14T16:20:45.875Z,-1.49
2022-12-14T16:23:28.457Z,-1.46
2022-12-14T16:26:20.611Z,-1.64
2022-12-14T16:29:21.411Z,-1.54
2022-12-14T16:32:31.355Z,-1.33
2022-12-14T16:38:30.021Z,-1.33
2022-12-14T16:41:26.632Z,-1.25
2022-12-14T16:44:11.035Z,-1.23
2022-12-14T16:47:23.982Z,-1.36
2022-12-14T16:50:55.803Z,-1.35
2022-12-14T16:53:35.746Z,-1.39
2022-12-14T16:56:45.354Z,-1.39
2022-12-14T17:00:14.683Z,-1.49
2022-12-14T17:03:23.755Z,-1.49
2022-12-14T17:06:06.683Z,-1.64
2022-12-14T17:09:05.821Z,-1.51
2022-12-14T17:11:55.194Z,-1.52
2022-12-14T17:14:49.954Z,-1.31
2022-12-14T17:17:49.656Z,-1.46
2022-12-14T17:20:39.700Z,-1.65
2022-12-14T17:23:28.155Z,-1.61
2022-12-14T17:26:20.983Z,-1.51
2022-12-14T17:29:08.935Z,-1.66
2022-12-14T17:31:50.157Z,-1.51
2022-12-14T17:34:41.653Z,-1.69
2022-12-14T17:37:36.199Z,-1.52
2022-12-14T17:40:28.054Z,-1.50
2022-12-14T17:43:32.990Z,-1.61
2022-12-14T17:46:29.849Z,-1.70
2022-12-14T17:49:38.477Z,-1.58
2022-12-14T17:52:42.835Z,-1.76
2022-12-14T17:55:37.295Z,-1.59
2022-12-14T17:58:16.579Z,-1.52
2022-12-14T18:01:07.011Z,-1.50
2022-12-14T18:03:51.206Z,-1.44
2022-12-14T18:06:39.291Z,-1.44
2022-12-14T18:09:47.995Z,-1.46
2022-12-14T18:12:41.237Z,-1.45
2022-12-14T18:15:35.151Z,-1.32
2022-12-14T18:18:21.021Z,-1.34
2022-12-14T18:21:31.901Z,-1.38
2022-12-14T18:24:25.604Z,-1.48
2022-12-14T18:27:17.493Z,-1.33
2022-12-14T18:30:05.806Z,-1.26
2022-12-14T18:32:57.211Z,-1.25
2022-12-14T18:35:49.771Z,-1.34
2022-12-14T18:38:38.609Z,-1.32
2022-12-14T18:41:22.316Z,-1.38
2022-12-14T18:44:01.570Z,-1.37
2022-12-14T18:46:53.438Z,-1.30
2022-12-14T18:49:40.497Z,-1.33
2022-12-14T18:52:40.453Z,-1.36
2022-12-14T18:55:46.185Z,-1.48
2022-12-14T18:58:29.772Z,-1.44
2022-12-14T19:01:17.351Z,-1.45
2022-12-14T19:04:03.718Z,-1.55
2022-12-14T19:07:02.427Z,-1.29
2022-12-14T19:10:03.546Z,-1.33
2022-12-14T19:12:52.701Z,-1.17
2022-12-14T19:15:40.783Z,-1.35
2022-12-14T19:18:37.282Z,-1.50
2022-12-14T19:21:30.872Z,-1.43
2022-12-14T19:24:29.343Z,-1.34
2022-12-14T19:27:14.815Z,-1.26
2022-12-14T19:29:56.791Z,-1.22
2022-12-14T19:32:45.265Z,-1.20
2022-12-14T19:35:36.500Z,-1.29
2022-12-14T19:38:25.635Z,-1.40
2022-12-14T19:41:21.522Z,-1.33
2022-12-14T19:44:01.122Z,-1.26
2022-12-14T19:46:49.373Z,-1.26
2022-12-14T19:49:41.646Z,-1.27
2022-12-14T19:52:29.129Z,-1.26
2022-12-14T19:55:14.929Z,-1.13
2022-12-14T19:57:56.174Z,-1.20
2022-12-14T20:00:50.101Z,-1.08
2022-12-14T20:03:38.782Z,-1.02
2022-12-14T20:06:22.329Z,-1.02
2022-12-14T20:09:15.673Z,-1.05
2022-12-14T20:12:02.476Z,-1.18
2022-12-14T20:14:43.674Z,-1.22
2022-12-14T20:17:43.563Z,-1.02
2022-12-14T20:20:32.849Z,-1.15
2022-12-14T20:23:31.998Z,-0.97
2022-12-14T20:26:17.898Z,-0.88
2022-12-14T20:29:11.258Z,-0.99
2022-12-14T20:31:58.643Z,-0.87
2022-12-14T20:34:43.597Z,-1.08
2022-12-14T20:37:35.036Z,-0.94
2022-12-14T20:40:19.634Z,-0.88
2022-12-14T20:43:12.004Z,-0.85
2022-12-14T20:46:02.148Z,-0.85
2022-12-14T20:48:48.442Z,-0.89
2022-12-14T20:51:36.703Z,-0.91
2022-12-14T20:54:36.799Z,-0.79
2022-12-14T20:57:29.623Z,-0.76
2022-12-14T21:00:17.978Z,-0.80
2022-12-14T21:03:09.556Z,-0.84
2022-12-14T21:05:57.092Z,-0.89
2022-12-14T21:08:53.893Z,-0.89
2022-12-14T21:11:53.070Z,-0.74
2022-12-14T21:14:51.946Z,-0.70
2022-12-14T21:17:50.072Z,-0.81
2022-12-14T21:20:42.590Z,-0.78
2022-12-14T21:23:29.402Z,-0.85
2022-12-14T21:26:20.952Z,-0.84
2022-12-14T21:29:24.299Z,-0.88
2022-12-14T21:32:15.983Z,-0.85
2022-12-14T21:35:13.430Z,-0.87
2022-12-14T21:37:55.070Z,-1.03
2022-12-14T21:40:55.841Z,-1.04
2022-12-14T21:43:44.991Z,-1.03
2022-12-14T21:46:37.106Z,-1.02
2022-12-14T21:49:23.076Z,-0.94
2022-12-14T21:52:08.535Z,-0.84
2022-12-14T21:54:53.679Z,-0.77
2022-12-14T21:57:50.642Z,-0.65
2022-12-14T22:00:46.090Z,-0.66
2022-12-14T22:03:29.268Z,-0.79
2022-12-14T22:06:14.569Z,-0.92
2022-12-14T22:09:00.626Z,-0.91
2022-12-14T22:11:52.826Z,-0.95
2022-12-14T22:14:35.358Z,-0.80
2022-12-14T22:17:20.847Z,-0.71
2022-12-14T22:20:10.549Z,-0.69
2022-12-14T22:22:51.997Z,-0.81
2022-12-14T22:25:32.782Z,-0.72
2022-12-14T22:28:18.841Z,-0.70
2022-12-14T22:31:14.187Z,-0.75
2022-12-14T22:34:07.097Z,-0.79
2022-12-14T22:36:49.596Z,-0.79
2022-12-14T22:39:57.912Z,-0.70
2022-12-14T22:42:48.733Z,-0.75
2022-12-14T22:45:47.750Z,-0.71
2022-12-14T22:48:38.284Z,-0.77
2022-12-14T22:51:32.141Z,-0.73
2022-12-14T22:54:32.560Z,-0.60
2022-12-14T22:57:20.535Z,-0.64
2022-12-14T23:00:11.513Z,-0.56
2022-12-14T23:02:55.622Z,-0.63
2022-12-14T23:05:50.548Z,-0.56
2022-12-14T23:08:33.524Z,-0.55
2022-12-14T23:11:27.237Z,-0.57
2022-12-14T23:14:29.699Z,-0.50
2022-12-14T23:17:30.849Z,-0.49
2022-12-14T23:20:34.115Z,-0.53
2022-12-14T23:23:37.129Z,-0.50
2022-12-14T23:26:36.552Z,-0.40
2022-12-14T23:29:42.335Z,-0.30
2022-12-14T23:32:43.332Z,-0.27
2022-12-14T23:35:46.555Z,-0.41
2022-12-14T23:38:52.192Z,-0.51
2022-12-14T23:41:51.373Z,-0.22
2022-12-14T23:44:50.193Z,-0.20
2022-12-14T23:47:49.241Z,-0.40
2022-12-14T23:50:52.200Z,-0.30
2022-12-14T23:53:53.506Z,-0.36
2022-12-14T23:56:35.515Z,-0.31
2022-12-14T23:59:32.002Z,-0.20
